September 30, 2022

Time Code Weather Temp. Visibility Ceiling Wind METAR/SPECI
05:00
V
24 °C 10 km+ - Var Var 3 kt METAR AYPY 291900Z VRB03KT 9999 SCT050 24/24 Q1009
04:00
V
24 °C 10 km+ - Var Var 3 kt METAR AYPY 291800Z VRB03KT 9999 SCT0100 24/24 Q1009
03:00
V
25 °C 10 km+ - Var Var 3 kt METAR AYPY 291700Z VRB03KT 9999 SCT0100 25/24 Q1009
02:00
V
25 °C 10 km+ - Var Var 3 kt METAR AYPY 291600Z VRB03KT 9999 SCT100 25/24 Q1009
01:00
V
26 °C 10 km+ - Var Var 3 kt METAR AYPY 291500Z VRB03KT 9999 SCT040 26/24 Q1010
00:00
V
26 °C 10 km+ - 130° 130° 8 kt METAR AYPY 291400Z 13008KT 9999 SCT040 26/24 Q1011

September 29, 2022

Time Code Weather Temp. Visibility Ceiling Wind METAR/SPECI
23:00
V
27 °C 10 km+ 4,000 ft 150° 150° 8 kt METAR AYPY 291300Z 15008KT 9999 BKN040 27/25 Q1011
22:00
V
27 °C 10 km+ 5,000 ft 140° 140° 10 kt METAR AYPY 291200Z 14010KT 9999 FEW030 BKN050 27/25 Q1011
21:00
V
27 °C 10 km+ 4,000 ft 140° 140° 10 kt METAR AYPY 291100Z 14010KT 9999 BKN040 27/25 Q1011
20:00
V
28 °C 10 km+ 5,000 ft 150° 150° 10 - 15 kt METAR AYPY 291000Z 15010G15KT 9999 SCT030 BKN050 28/26 Q1010
19:00
V
28 °C 10 km+ 4,000 ft 150° 150° 10 - 15 kt METAR AYPY 290900Z 15010G15KT 9999 HZ SCT015 BKN040 28/26 Q1009 RMK/CB IN AREA
18:00
V
28 °C 10 km+ - 160° 160° 10 - 15 kt METAR AYPY 290800Z 16010G15KT 9999 HZ SCT020 SCT030 28/25 Q1009 RMK/CB IN AREA
17:00
V
29 °C 10 km+ - 150° 150° 10 - 15 kt METAR AYPY 290700Z 15010G15KT 9999 HZ SCT020 SCT030 29/25 Q1008 RMK/CB IN AREA
16:00
V
31 °C 10 km+ - 150° 150° 10 - 15 kt METAR AYPY 290600Z 15010G15KT 9999 FEW020 SCT030 31/24 Q1007 RMK/CB FM N TO NE
15:00
V
31 °C 10 km+ - 170° 170° 13 kt METAR AYPY 290500Z 17013KT 9999 FEW020 SCT030 31/25 Q1008 RMK
14:00
V
31 °C 10 km+ - 200° 200° 12 kt METAR AYPY 290400Z 20012KT 9999 HZ SCT030 31/25 Q1008 RMK/CB FM N TO NE
13:00
V
32 °C 10 km+ - 200° 200° 10 kt METAR AYPY 290300Z 20010KT 9999 SCT020 32/25 Q1009 RMK
12:00
V
32 °C 10 km+ - 230° 230° 10 kt METAR AYPY 290200Z 23010KT 9999 SCT030 32/25 Q1010
11:00
V
32 °C 10 km+ - 310° 310° 5 - 10 kt METAR AYPY 290100Z 31005G10KT 9999 HZ SCT035 32/25 Q1010=
10:00
V
30 °C 10 km+ - 320° 320° 10 kt METAR AYPY 290000Z 32010KT 9999 FEW020 30/24 Q1011
09:00
V
29 °C 10 km+ - 320° 320° 10 kt METAR AYPY 282300Z 32010KT 9999 FEW020 29/25 Q1011
08:00
V
27 °C 10 km+ - 350° 350° 10 kt METAR AYPY 282200Z 35010KT 9999 FEW040 27/24 Q1010
07:00
V
25 °C 10 km+ - 310° 310° 5 kt METAR AYPY 282100Z 31005KT 9999 FEW020 25/24 Q1010
06:00
V
24 °C 10 km+ - 340° 340° 6 kt METAR AYPY 282000Z 34006KT 9999 FEW020 SCT070 24/23 Q1009=
05:00
V
24 °C 10 km+ - 340° 340° 4 kt METAR AYPY 281900Z 34004KT 9999 FEW003 SCT100 24/24 Q1008 RMKS
04:00
L
24 °C 0 m 5,000 ft 340° 340° 5 kt METAR AYPY 281800Z 34005KT 1000M FG SCT002 BKN050 24/24 Q1008=
02:00
V
25 °C 10 km+ - 230° 230° 3 kt METAR AYPY 281600Z 23003KT 9999 SCT100 25/24 Q1008
01:00
V
25 °C 10 km+ - Var Var 3 kt METAR AYPY 281500Z VRB03KT 9999 SCT100 25/24 Q1008
00:00
V
25 °C 10 km+ 10,000 ft Var Var 3 kt METAR AYPY 281400Z VRB03KT 9999 BKN100 25/24 Q1009

September 28, 2022

Time Code Weather Temp. Visibility Ceiling Wind METAR/SPECI
23:00
V
25 °C 10 km+ - Var Var 3 kt METAR AYPY 281300Z VRB03KT 9999 SCT050 25/24 Q1009
22:00
V
25 °C 10 km+ - Var Var 3 kt METAR AYPY 281200Z VRB03KT 9999 SCT050 25/24 Q1010
21:00
V
25 °C 10 km+ - 310° 310° 5 kt METAR AYPY 281100Z 31005KT 9999 SCT050 25/24 Q1009
20:00
V
25 °C 10 km+ 10,000 ft 330° 330° 5 kt METAR AYPY 281000Z 33005KT 9999 SCT040 BKN100 25/24 Q1009
19:00
V
25 °C 10 km+ 10,000 ft Var Var 3 kt METAR AYPY 280900Z VRB03KT 9999 SCT030 BKN100 25/24 Q1008
18:00
V
25 °C 10 km+ 3,000 ft 120° 120° 10 kt METAR AYPY 280800Z 12010KT 9999 HZ RASH SCT020 BKN030 25/24 Q1008
17:00
V
26 °C 10 km+ 4,000 ft 120° 120° 10 kt METAR AYPY 280700Z 12010KT 9999 HZ SCT020 BKN040 26/23 Q1007
16:00
V
25 °C 10 km+ 3,500 ft 320° 320° 15 - 20 kt METAR AYPY 280600Z 32015G20KT 9999 HZ SCT020 BKN035 25/23 Q1006 RMK/CB IN AREA
15:00
V
31 °C 10 km+ 3,000 ft 180° 180° 10 kt METAR AYPY 280500Z 18010KT 9999 HZ FEW020 BKN030CB 31/25 Q1006
14:00
V
31 °C 10 km+ 3,000 ft 190° 190° 10 kt METAR AYPY 280400Z 19010KT 9999 HZ FEW020 BKN030CB 31/25 Q1006
13:00
V
31 °C 10 km+ 3,500 ft 190° 190° 10 kt METAR AYPY 280300Z 19010KT 9999 HZ SCT025 BKN035CB 31/25 Q1007
12:00
V
31 °C 10 km+ 3,500 ft 200° 200° 10 kt METAR AYPY 280200Z 20010KT 9999 HZ SCT025 BKN035CB 31/25 Q1008
11:00
V
30 °C 10 km+ 4,500 ft 200° 200° 10 kt METAR AYPY 280100Z 20010KT 9999 HZ SCT025 BKN045CB 30/24 Q1009
10:00
V
30 °C 10 km+ - 330° 330° 10 kt METAR AYPY 280000Z 33010KT 9999 HZ SCT025 30/24 Q1009
09:00
V
29 °C 10 km+ - 330° 330° 10 kt METAR AYPY 272300Z 33010KT 9999 HZ FEW020 FEW050 29/24 Q1009
08:00
V
26 °C 10 km+ - Var Var 5 kt METAR AYPY 272200Z VRB05KT 9999 FEW050 26/24 Q1009
07:00
V
24 °C 10 km+ - Var Var 5 kt METAR AYPY 272100Z VRB05KT 9999 HZ SCT060 24/23 Q1008
06:00
V
23 °C 10 km+ - Var Var 4 kt METAR AYPY 272000Z VRB04KT 9999 SCT060 23/23 Q1008
05:00
V
24 °C 10 km+ - Var Var 3 kt METAR AYPY 271900Z VRB03KT 9999 SCT015 24/23 Q1007
04:00
V
24 °C 10 km+ - Var Var 5 kt METAR AYPY 271800Z VRB05KT 9999 SCT015 SCT240 24/23 Q1007
03:00
V
24 °C 10 km+ - 320° 320° 7 kt METAR AYPY 271700Z 32007KT 9999 SCT015 24/23 Q1007
01:00
V
24 °C 10 km+ - Var Var 4 kt METAR AYPY 271500Z VRB04KT 9999 FEW050 24/23 Q1007
Older data

We and third parties follow your internet behavior on our website with cookies. If you continue, we assume you agree with our cookie policy. Learn more